Time;durP1;ratioP1;P1;durP2;ratioP2;P2;SDS_P1;SDS_P2;PMS_P1;PMS_P2;Temp;Humidity;BMP_temperature;BMP_pressure;BME280_temperature;BME280_humidity;BME280_pressure;Samples;Min_cycle;Max_cycle;Signal;HPM_P1;HPM_P2
2023/03/11 00:02:19;;;;;;;18.75;9.50;;;17.00;45.90;;;;;;4962206;28;20215;-85
2023/03/11 00:04:47;;;;;;;21.23;9.50;;;17.00;46.70;;;;;;4961219;28;20252;-85
2023/03/11 00:07:14;;;;;;;23.15;9.45;;;17.00;46.10;;;;;;4961059;28;20269;-85
2023/03/11 00:09:41;;;;;;;22.67;10.68;;;17.00;45.80;;;;;;4960682;28;20599;-85
2023/03/11 00:12:08;;;;;;;20.08;9.18;;;16.90;46.70;;;;;;4961297;28;20206;-85
2023/03/11 00:14:37;;;;;;;21.95;8.60;;;16.90;46.30;;;;;;4961525;28;20202;-85
2023/03/11 00:17:05;;;;;;;20.13;8.35;;;16.90;45.80;;;;;;4945390;28;20222;-85
2023/03/11 00:19:32;;;;;;;15.60;8.30;;;16.80;45.80;;;;;;4961109;28;20210;-84
2023/03/11 00:21:59;;;;;;;18.40;8.35;;;16.80;45.30;;;;;;4960833;28;20731;-85
2023/03/11 00:24:26;;;;;;;15.48;7.65;;;16.80;45.40;;;;;;4961340;28;20613;-85
2023/03/11 00:26:54;;;;;;;18.67;8.38;;;16.80;45.20;;;;;;4960623;28;20218;-85
2023/03/11 00:29:21;;;;;;;14.60;7.80;;;16.80;45.80;;;;;;4961232;28;20265;-85
2023/03/11 00:31:50;;;;;;;19.63;8.73;;;16.70;45.10;;;;;;4960363;28;20209;-85
2023/03/11 00:34:16;;;;;;;17.20;7.88;;;16.70;45.40;;;;;;4961162;28;20213;-84
2023/03/11 00:36:44;;;;;;;14.45;7.88;;;16.60;45.90;;;;;;4960354;28;20224;-85
2023/03/11 00:39:10;;;;;;;15.05;7.22;;;16.60;45.40;;;;;;4960941;28;20210;-85
2023/03/11 00:41:38;;;;;;;15.88;7.40;;;16.60;45.00;;;;;;4959914;28;20209;-84
2023/03/11 00:44:06;;;;;;;14.40;7.40;;;16.60;45.00;;;;;;4959945;28;20194;-84
2023/03/11 00:46:33;;;;;;;16.45;7.53;;;16.60;44.90;;;;;;4959989;28;20696;-84
2023/03/11 00:49:02;;;;;;;12.85;7.18;;;16.60;45.00;;;;;;4944200;28;20250;-84
2023/03/11 00:51:29;;;;;;;13.00;6.97;;;16.60;44.90;;;;;;4960316;28;20201;-84
2023/03/11 00:53:56;;;;;;;16.08;7.45;;;16.60;44.80;;;;;;4959760;28;20684;-84
2023/03/11 00:56:24;;;;;;;14.70;7.22;;;16.50;44.90;;;;;;4959941;28;20218;-85
2023/03/11 00:58:51;;;;;;;16.30;7.32;;;16.60;45.00;;;;;;4959897;28;20305;-85
2023/03/11 01:01:19;;;;;;;16.50;7.63;;;16.50;44.90;;;;;;4960006;28;20202;-85
2023/03/11 01:03:47;;;;;;;15.23;6.70;;;16.60;45.30;;;;;;4960324;28;20198;-85
2023/03/11 01:06:15;;;;;;;16.10;7.88;;;16.50;45.20;;;;;;4944767;28;20214;-85
2023/03/11 01:08:43;;;;;;;16.50;7.15;;;16.50;45.30;;;;;;4959969;28;20261;-85
2023/03/11 01:11:10;;;;;;;16.90;7.38;;;16.50;45.50;;;;;;4959524;28;20289;-85
2023/03/11 01:13:38;;;;;;;17.55;7.50;;;16.50;45.50;;;;;;4959573;28;20516;-85
2023/03/11 01:16:06;;;;;;;17.00;7.32;;;16.50;45.20;;;;;;4959374;28;20256;-85
2023/03/11 01:18:33;;;;;;;13.48;6.97;;;16.50;46.20;;;;;;4960447;28;20297;-85
2023/03/11 01:21:00;;;;;;;14.30;6.93;;;16.40;45.70;;;;;;4959770;28;20202;-85
2023/03/11 01:23:31;;;;;;;16.90;7.60;;;16.40;45.90;;;;;;4959817;28;20201;-85
2023/03/11 01:25:58;;;;;;;15.38;6.70;;;16.40;45.90;;;;;;4959845;28;20649;-85
2023/03/11 01:28:26;;;;;;;14.60;6.43;;;16.40;46.30;;;;;;4960145;28;20202;-85
2023/03/11 01:30:55;;;;;;;16.35;7.07;;;16.40;46.00;;;;;;4959928;28;20542;-85
2023/03/11 01:33:22;;;;;;;15.48;7.00;;;16.40;46.20;;;;;;4959304;28;20198;-85
2023/03/11 01:35:50;;;;;;;13.90;6.70;;;16.40;46.30;;;;;;4959099;28;20214;-85
2023/03/11 01:38:17;;;;;;;11.85;6.15;;;16.40;46.50;;;;;;4959171;28;20624;-85
2023/03/11 01:40:46;;;;;;;11.05;5.88;;;16.40;49.30;;;;;;4959022;28;20199;-85
2023/03/11 01:49:12;;;;;;;11.38;5.53;;;16.30;48.90;;;;;;4916286;29;20769;-70
2023/03/11 01:51:41;;;;;;;13.30;6.03;;;16.40;48.80;;;;;;4917074;29;20719;-68
2023/03/11 01:54:12;;;;;;;9.57;5.60;;;16.40;48.20;;;;;;4901525;29;20204;-70
2023/03/11 01:56:41;;;;;;;10.07;5.15;;;16.30;48.00;;;;;;4901172;29;20196;-69
2023/03/11 01:59:11;;;;;;;10.02;5.10;;;16.40;47.70;;;;;;4901374;29;20287;-69
2023/03/11 02:01:42;;;;;;;11.10;5.40;;;16.40;47.80;;;;;;4900681;29;20200;-69
2023/03/11 02:04:09;;;;;;;12.00;5.93;;;16.30;47.60;;;;;;4900405;29;20196;-68
2023/03/11 02:06:36;;;;;;;9.35;5.68;;;16.30;47.30;;;;;;4900216;29;20566;-68
2023/03/11 02:09:03;;;;;;;10.20;4.88;;;16.30;47.50;;;;;;4900376;29;20667;-69
2023/03/11 02:11:31;;;;;;;10.07;5.40;;;16.30;47.30;;;;;;4900499;29;20224;-68
2023/03/11 02:14:03;;;;;;;11.70;5.10;;;16.30;47.40;;;;;;4900186;29;20200;-70
2023/03/11 02:16:30;;;;;;;12.02;5.30;;;16.30;47.50;;;;;;4916078;29;20196;-70
2023/03/11 02:18:57;;;;;;;7.72;4.82;;;16.30;47.20;;;;;;4917362;29;20199;-71
2023/03/11 02:21:26;;;;;;;11.10;5.35;;;16.30;47.10;;;;;;4900257;29;20200;-69
2023/03/11 02:23:59;;;;;;;7.28;4.47;;;16.20;47.20;;;;;;4900316;29;20223;-69
2023/03/11 02:26:29;;;;;;;9.10;4.85;;;16.20;46.90;;;;;;4916294;29;20203;-70
2023/03/11 02:28:58;;;;;;;9.32;4.90;;;16.20;47.00;;;;;;4900002;29;20196;-70
2023/03/11 02:31:26;;;;;;;8.98;4.88;;;16.20;47.10;;;;;;4900256;29;20200;-69
2023/03/11 02:33:54;;;;;;;9.88;5.07;;;16.20;46.80;;;;;;4899913;29;20310;-70
2023/03/11 02:36:32;;;;;;;8.90;5.00;;;16.10;47.10;;;;;;4900282;29;20200;-68
2023/03/11 02:39:00;;;;;;;7.93;4.57;;;16.10;46.60;;;;;;4915721;29;20248;-69
2023/03/11 02:41:28;;;;;;;8.00;4.68;;;16.10;46.70;;;;;;4900382;29;20208;-68
2023/03/11 02:43:55;;;;;;;9.13;5.15;;;16.10;46.60;;;;;;4899766;29;20200;-68
2023/03/11 02:46:25;;;;;;;8.57;4.72;;;16.10;46.70;;;;;;4899942;29;20630;-69
2023/03/11 02:48:52;;;;;;;8.60;4.78;;;16.10;46.80;;;;;;4900022;29;20196;-68
2023/03/11 02:51:19;;;;;;;7.35;4.55;;;16.10;46.70;;;;;;4916760;29;20200;-69
2023/03/11 02:53:49;;;;;;;7.13;4.28;;;16.10;47.30;;;;;;4900240;29;20204;-68
2023/03/11 02:56:16;;;;;;;8.40;4.63;;;16.00;46.70;;;;;;4899665;29;20648;-68
2023/03/11 02:58:43;;;;;;;8.07;4.40;;;16.00;46.60;;;;;;4899644;29;20196;-70
2023/03/11 03:01:10;;;;;;;9.10;4.60;;;16.00;46.90;;;;;;4899666;29;20228;-69
2023/03/11 03:03:39;;;;;;;7.28;4.40;;;16.00;46.60;;;;;;4915768;29;20267;-70
2023/03/11 03:06:06;;;;;;;6.72;4.18;;;16.00;46.50;;;;;;4900003;29;20227;-70
2023/03/11 03:08:34;;;;;;;7.78;4.38;;;16.00;46.40;;;;;;4915710;29;20226;-70
2023/03/11 03:11:02;;;;;;;7.43;3.95;;;15.90;47.50;;;;;;4899861;29;20308;-69
2023/03/11 03:13:42;;;;;;;8.00;4.05;;;15.90;46.90;;;;;;4967454;23;20269;-84
2023/03/11 03:16:09;;;;;;;6.43;3.92;;;15.90;47.00;;;;;;4959570;28;20222;-84
2023/03/11 03:18:37;;;;;;;7.55;4.10;;;15.80;46.90;;;;;;4993368;23;20639;-82
2023/03/11 03:21:05;;;;;;;7.25;4.05;;;15.80;46.60;;;;;;4970695;28;20217;-81
2023/03/11 03:23:36;;;;;;;7.07;3.83;;;15.80;46.90;;;;;;4966521;28;20194;-81
2023/03/11 03:26:04;;;;;;;7.60;3.95;;;15.80;46.90;;;;;;4949718;28;20225;-81
2023/03/11 03:28:31;;;;;;;6.07;3.58;;;15.70;46.40;;;;;;4965118;28;20205;-81
2023/03/11 03:31:03;;;;;;;6.57;3.80;;;15.70;46.70;;;;;;4948857;28;20568;-81
2023/03/11 03:33:31;;;;;;;7.60;4.05;;;15.70;46.60;;;;;;4962093;28;20217;-81
2023/03/11 03:35:58;;;;;;;7.55;4.05;;;15.70;46.30;;;;;;4962428;28;20237;-81
2023/03/11 03:38:31;;;;;;;6.22;3.80;;;15.70;46.20;;;;;;4963007;28;20216;-80
2023/03/11 03:40:59;;;;;;;6.72;3.80;;;15.70;46.10;;;;;;4962761;28;20265;-80
2023/03/11 03:43:26;;;;;;;7.57;4.00;;;15.70;45.90;;;;;;4961850;28;20562;-80
2023/03/11 03:45:57;;;;;;;7.05;3.60;;;15.70;46.80;;;;;;4961799;28;20222;-80
2023/03/11 03:48:27;;;;;;;5.65;3.38;;;15.60;46.10;;;;;;4962961;28;20198;-80
2023/03/11 03:50:55;;;;;;;5.18;3.45;;;15.70;46.10;;;;;;4962292;28;20214;-80
2023/03/11 03:53:22;;;;;;;5.82;3.38;;;15.60;46.00;;;;;;4964365;28;20676;-80
2023/03/11 03:55:53;;;;;;;8.82;3.88;;;15.60;46.50;;;;;;4962968;28;20217;-80
2023/03/11 03:58:20;;;;;;;6.32;3.80;;;15.60;46.00;;;;;;4963283;28;20198;-81
2023/03/11 04:00:48;;;;;;;5.68;3.42;;;15.60;45.90;;;;;;4962201;28;20198;-80
2023/03/11 04:03:16;;;;;;;4.68;3.30;;;15.60;45.90;;;;;;4947091;28;20209;-80
2023/03/11 04:05:50;;;;;;;6.40;3.50;;;15.50;45.70;;;;;;4947748;28;20222;-80
2023/03/11 04:08:17;;;;;;;5.93;3.30;;;15.50;45.50;;;;;;4962240;28;20214;-80
2023/03/11 04:10:45;;;;;;;5.30;3.28;;;15.50;45.60;;;;;;4962255;28;20767;-79
2023/03/11 04:13:13;;;;;;;4.45;2.88;;;15.50;46.20;;;;;;4962102;28;20241;-79
2023/03/11 04:15:42;;;;;;;7.05;3.20;;;15.50;45.60;;;;;;4962057;28;20604;-79
2023/03/11 04:18:09;;;;;;;5.97;3.20;;;15.50;45.60;;;;;;4961852;28;20202;-79
2023/03/11 04:20:38;;;;;;;5.82;3.00;;;15.50;45.80;;;;;;4961614;28;20199;-80
2023/03/11 04:23:06;;;;;;;4.75;2.97;;;15.50;45.80;;;;;;4946097;28;20612;-80
2023/03/11 04:25:33;;;;;;;4.68;2.80;;;15.40;45.70;;;;;;4961510;28;20218;-80
2023/03/11 04:28:00;;;;;;;4.93;2.65;;;15.40;45.50;;;;;;4961067;28;20202;-80
2023/03/11 04:30:30;;;;;;;5.85;3.00;;;15.40;45.40;;;;;;4962295;28;20222;-80
2023/03/11 04:32:58;;;;;;;5.35;2.97;;;15.40;45.30;;;;;;4962092;28;20285;-80
2023/03/11 04:35:25;;;;;;;4.68;2.50;;;15.40;45.20;;;;;;4961547;28;20805;-80
2023/03/11 04:37:53;;;;;;;5.72;3.10;;;15.40;45.10;;;;;;4961980;28;20198;-80
2023/03/11 04:40:21;;;;;;;4.60;2.97;;;15.40;45.10;;;;;;4962127;28;20194;-80
2023/03/11 04:42:48;;;;;;;4.68;2.78;;;15.50;45.50;;;;;;4961142;28;20206;-80
2023/03/11 04:45:17;;;;;;;4.15;3.00;;;15.50;45.10;;;;;;4961766;28;20707;-80
2023/03/11 04:47:48;;;;;;;4.65;2.78;;;15.50;45.10;;;;;;4960916;28;20249;-80
2023/03/11 04:50:16;;;;;;;4.88;2.63;;;15.50;45.00;;;;;;4961293;28;20301;-80
2023/03/11 04:52:44;;;;;;;4.07;2.80;;;15.50;45.10;;;;;;4944821;28;20652;-80
2023/03/11 04:55:12;;;;;;;6.72;3.03;;;15.50;45.00;;;;;;4944925;28;20198;-80
2023/03/11 04:57:41;;;;;;;4.65;2.80;;;15.50;45.20;;;;;;4961030;28;20286;-80
2023/03/11 05:00:12;;;;;;;5.00;2.78;;;15.50;45.30;;;;;;4962021;28;20652;-80
2023/03/11 05:02:44;;;;;;;4.20;2.85;;;15.40;45.10;;;;;;4961855;28;20209;-80
2023/03/11 05:05:13;;;;;;;4.20;2.67;;;15.40;45.20;;;;;;4962069;28;20289;-80
2023/03/11 05:07:41;;;;;;;4.80;2.40;;;15.50;45.10;;;;;;4961612;28;20293;-80
2023/03/11 05:10:10;;;;;;;4.95;2.83;;;15.50;44.70;;;;;;4960731;28;20712;-81
2023/03/11 05:12:38;;;;;;;5.32;2.70;;;15.50;44.80;;;;;;4961697;28;20202;-81
2023/03/11 05:15:07;;;;;;;4.53;2.85;;;15.50;44.50;;;;;;4960975;28;20252;-80
2023/03/11 05:17:34;;;;;;;4.18;2.70;;;15.50;44.40;;;;;;4961315;28;20633;-80
2023/03/11 05:20:05;;;;;;;4.20;2.58;;;15.50;44.30;;;;;;4944941;28;20202;-80
2023/03/11 05:22:34;;;;;;;3.55;2.35;;;15.50;44.20;;;;;;4960866;28;20257;-80
2023/03/11 05:25:01;;;;;;;3.53;2.53;;;15.60;44.20;;;;;;4961088;28;20257;-80
2023/03/11 05:27:28;;;;;;;4.72;2.55;;;15.60;44.10;;;;;;4960873;28;20286;-80
2023/03/11 05:29:57;;;;;;;3.65;2.58;;;15.60;44.20;;;;;;4961178;28;20203;-80
2023/03/11 05:32:26;;;;;;;5.50;2.60;;;15.60;44.20;;;;;;4968088;28;20202;-80
2023/03/11 05:34:55;;;;;;;6.28;2.95;;;15.60;44.20;;;;;;4983219;28;20202;-80
2023/03/11 05:37:22;;;;;;;4.43;2.50;;;15.60;44.10;;;;;;4983368;28;20216;-80
2023/03/11 05:39:53;;;;;;;4.05;2.25;;;15.60;44.00;;;;;;4982500;28;20190;-80
2023/03/11 05:42:21;;;;;;;5.15;2.58;;;15.60;43.80;;;;;;4983323;28;20193;-80
2023/03/11 05:44:52;;;;;;;3.25;2.30;;;15.60;43.80;;;;;;4983230;28;20174;-80
2023/03/11 05:47:20;;;;;;;5.53;2.30;;;15.60;43.80;;;;;;4983187;28;20200;-80
2023/03/11 05:49:48;;;;;;;3.83;2.55;;;15.60;43.80;;;;;;4973134;28;20549;-80
2023/03/11 05:52:18;;;;;;;4.63;2.50;;;15.70;43.80;;;;;;4960091;28;20617;-80
2023/03/11 05:54:45;;;;;;;4.85;2.58;;;15.70;43.70;;;;;;4960673;28;20213;-80
2023/03/11 05:57:14;;;;;;;4.32;2.38;;;15.70;43.70;;;;;;4959739;28;20276;-80
2023/03/11 05:59:41;;;;;;;3.08;2.17;;;15.70;43.80;;;;;;4944436;28;20202;-80
2023/03/11 06:02:09;;;;;;;3.75;2.28;;;15.70;43.90;;;;;;4959699;28;20298;-80
2023/03/11 06:04:36;;;;;;;4.28;2.03;;;15.80;43.60;;;;;;4959842;28;20206;-80
2023/03/11 06:07:04;;;;;;;3.97;2.40;;;15.80;43.40;;;;;;4959716;28;20313;-80
2023/03/11 06:09:35;;;;;;;3.58;2.40;;;15.80;43.30;;;;;;4960031;28;20197;-80
2023/03/11 06:12:03;;;;;;;4.45;2.38;;;15.80;43.00;;;;;;4976912;28;20242;-80
2023/03/11 06:14:47;;;;;;;4.63;2.30;;;15.80;43.30;;;;;;4959703;28;20201;-80
2023/03/11 06:17:15;;;;;;;4.35;2.50;;;15.90;43.20;;;;;;4962330;28;20281;-81
2023/03/11 06:19:42;;;;;;;4.50;2.40;;;15.90;43.10;;;;;;4960268;28;20202;-81
2023/03/11 06:22:10;;;;;;;3.47;2.15;;;15.90;42.80;;;;;;4959654;28;20209;-81
2023/03/11 06:24:37;;;;;;;2.88;2.08;;;15.90;42.80;;;;;;4960028;28;20198;-81
2023/03/11 06:27:08;;;;;;;3.70;2.10;;;15.90;42.50;;;;;;4959646;28;20218;-80
2023/03/11 06:29:35;;;;;;;2.85;2.10;;;16.00;42.60;;;;;;4960517;28;20194;-80
2023/03/11 06:32:03;;;;;;;4.10;2.50;;;16.00;42.50;;;;;;4965601;28;20245;-80
2023/03/11 06:34:31;;;;;;;3.45;2.10;;;16.00;42.60;;;;;;4959494;28;20671;-80
2023/03/11 06:37:00;;;;;;;3.03;2.15;;;16.00;42.60;;;;;;4943549;28;20245;-80
2023/03/11 06:39:27;;;;;;;4.07;2.15;;;16.00;42.30;;;;;;4958855;28;20270;-80
2023/03/11 06:41:55;;;;;;;3.20;2.15;;;16.10;42.30;;;;;;4959099;28;20723;-80
2023/03/11 06:44:22;;;;;;;3.22;1.98;;;16.10;42.10;;;;;;4960969;28;20592;-81
2023/03/11 06:46:49;;;;;;;4.65;2.00;;;16.10;42.50;;;;;;4962904;28;20326;-80
2023/03/11 06:49:19;;;;;;;4.05;2.22;;;16.20;42.20;;;;;;4961092;28;20198;-80
2023/03/11 06:51:46;;;;;;;3.60;2.10;;;16.20;42.00;;;;;;4962312;28;20676;-80
2023/03/11 06:54:15;;;;;;;3.28;1.83;;;16.20;42.40;;;;;;4964708;28;20197;-81
2023/03/11 06:56:43;;;;;;;3.72;2.30;;;16.30;42.20;;;;;;4963402;28;20221;-80
2023/03/11 06:59:10;;;;;;;3.65;2.22;;;16.30;41.70;;;;;;4980813;28;20221;-80
2023/03/11 07:01:37;;;;;;;3.33;2.08;;;16.30;41.60;;;;;;4963187;28;20254;-80
2023/03/11 07:04:06;;;;;;;2.22;1.83;;;16.40;41.60;;;;;;4963422;28;20202;-80
2023/03/11 07:06:37;;;;;;;2.40;1.83;;;16.40;41.50;;;;;;4962718;28;20689;-80
2023/03/11 07:09:12;;;;;;;4.53;2.15;;;16.50;41.50;;;;;;4964130;28;20198;-80
2023/03/11 07:11:42;;;;;;;3.42;2.10;;;16.50;41.70;;;;;;4963287;28;20218;-80
2023/03/11 07:14:14;;;;;;;2.75;1.90;;;16.60;41.50;;;;;;4964414;28;20612;-81
2023/03/11 07:16:46;;;;;;;3.47;2.05;;;16.70;41.30;;;;;;4964843;28;20313;-83
2023/03/11 07:19:25;;;;;;;3.78;2.22;;;16.80;41.20;;;;;;4948837;28;20205;-80
2023/03/11 07:21:53;;;;;;;1.92;1.52;;;17.00;41.10;;;;;;4963636;28;20695;-80
2023/03/11 07:24:20;;;;;;;2.40;1.90;;;17.20;40.50;;;;;;4963290;28;20206;-79
2023/03/11 07:26:48;;;;;;;2.92;1.90;;;17.20;40.10;;;;;;4963086;28;20281;-79
2023/03/11 07:29:15;;;;;;;3.53;1.80;;;17.30;40.20;;;;;;4947228;28;20297;-80
2023/03/11 07:31:42;;;;;;;3.03;2.08;;;17.40;40.00;;;;;;4962830;28;20641;-80
2023/03/11 07:34:13;;;;;;;3.30;1.85;;;17.40;39.90;;;;;;4963476;28;20665;-81
2023/03/11 07:36:40;;;;;;;3.25;1.95;;;17.50;39.80;;;;;;4965628;28;20229;-81
2023/03/11 07:39:12;;;;;;;3.47;2.17;;;17.60;39.80;;;;;;4977463;28;20206;-81
2023/03/11 07:41:39;;;;;;;3.83;1.88;;;17.70;39.70;;;;;;4965185;28;20178;-80
2023/03/11 07:44:06;;;;;;;3.10;1.65;;;17.70;39.20;;;;;;4964711;28;20206;-80
2023/03/11 07:46:34;;;;;;;3.15;1.83;;;17.80;39.10;;;;;;4981413;28;20202;-79
2023/03/11 07:49:02;;;;;;;3.00;1.60;;;17.80;39.40;;;;;;4949078;28;20660;-80
2023/03/11 07:51:30;;;;;;;3.38;1.70;;;18.00;39.40;;;;;;4948688;28;20631;-80
2023/03/11 07:53:58;;;;;;;2.97;1.60;;;18.20;39.10;;;;;;4963684;28;20205;-78
2023/03/11 07:56:27;;;;;;;2.97;1.80;;;18.40;39.20;;;;;;4964017;28;20284;-78
2023/03/11 07:58:55;;;;;;;2.22;1.67;;;18.70;38.70;;;;;;4983661;23;20234;-85
2023/03/11 08:01:22;;;;;;;4.68;2.00;;;18.90;38.50;;;;;;4980091;28;20208;-85
2023/03/11 08:03:51;;;;;;;3.17;1.98;;;19.20;38.40;;;;;;4978228;28;20198;-85
2023/03/11 08:06:20;;;;;;;2.90;1.92;;;19.40;38.10;;;;;;4977347;28;20222;-85
2023/03/11 08:08:47;;;;;;;4.72;1.80;;;19.50;38.00;;;;;;4977916;28;20206;-85
2023/03/11 08:11:14;;;;;;;2.45;1.85;;;19.70;37.90;;;;;;4977924;28;20569;-85
2023/03/11 08:13:43;;;;;;;3.47;1.83;;;19.90;37.80;;;;;;4978317;28;20225;-84
2023/03/11 08:16:12;;;;;;;2.92;1.73;;;20.00;37.70;;;;;;4979158;28;20221;-85
2023/03/11 08:18:39;;;;;;;3.17;2.03;;;20.10;37.50;;;;;;4979033;28;20198;-84
2023/03/11 08:21:08;;;;;;;3.00;1.98;;;20.20;37.50;;;;;;4980443;28;20517;-84
2023/03/11 08:23:35;;;;;;;3.25;1.83;;;20.30;37.20;;;;;;4977795;28;20202;-85
2023/03/11 08:26:03;;;;;;;3.28;1.80;;;20.50;37.30;;;;;;4977804;28;20225;-85
2023/03/11 08:28:30;;;;;;;2.33;1.90;;;20.60;37.10;;;;;;4978212;28;20199;-84
2023/03/11 08:30:59;;;;;;;2.95;1.65;;;20.60;37.20;;;;;;4977709;28;20190;-83
2023/03/11 08:33:26;;;;;;;2.90;1.70;;;20.60;37.10;;;;;;4977764;28;20198;-85
2023/03/11 08:36:13;;;;;;;2.53;1.80;;;20.70;37.10;;;;;;4979127;28;20228;-85
2023/03/11 08:38:40;;;;;;;2.53;1.60;;;20.70;36.90;;;;;;4977726;28;20206;-85
2023/03/11 08:41:08;;;;;;;2.35;1.70;;;20.80;36.90;;;;;;4977105;28;20204;-85
2023/03/11 08:43:35;;;;;;;3.05;1.80;;;20.90;36.80;;;;;;4977489;28;20202;-84
2023/03/11 08:46:05;;;;;;;2.00;1.60;;;21.00;36.70;;;;;;4978481;28;20218;-85
2023/03/11 08:48:33;;;;;;;2.88;2.03;;;21.00;36.30;;;;;;4978482;28;20198;-85
2023/03/11 08:50:59;;;;;;;2.55;1.70;;;21.00;36.40;;;;;;4976593;28;20627;-84
2023/03/11 08:53:27;;;;;;;2.10;1.45;;;21.10;35.00;;;;;;4977205;28;20205;-84
2023/03/11 08:55:54;;;;;;;5.28;1.77;;;21.20;35.50;;;;;;4977059;28;20289;-84
2023/03/11 08:58:21;;;;;;;1.88;1.58;;;21.20;35.30;;;;;;4976871;28;20206;-85
2023/03/11 09:00:48;;;;;;;2.53;1.70;;;21.20;35.30;;;;;;4977509;28;20210;-85
2023/03/11 09:03:17;;;;;;;3.95;1.85;;;21.10;31.40;;;;;;4968236;28;20182;-85
2023/03/11 09:05:44;;;;;;;2.50;1.42;;;21.10;34.40;;;;;;4989022;28;20226;-86
2023/03/11 09:08:11;;;;;;;4.13;1.67;;;21.00;33.80;;;;;;4981097;28;20202;-85
2023/03/11 09:10:38;;;;;;;2.95;1.85;;;20.80;34.00;;;;;;4979742;28;20446;-85
2023/03/11 09:13:05;;;;;;;3.17;1.70;;;20.70;34.50;;;;;;4980365;28;20699;-85
2023/03/11 09:15:35;;;;;;;1.88;1.48;;;20.60;35.50;;;;;;4980916;28;20305;-85
2023/03/11 09:18:02;;;;;;;26.35;9.88;;;20.70;36.20;;;;;;4978859;28;20209;-85
2023/03/11 09:20:30;;;;;;;103.13;37.28;;;20.90;35.80;;;;;;4963166;28;20731;-86
2023/03/11 09:22:57;;;;;;;87.47;32.33;;;21.00;37.50;;;;;;4980325;28;20194;-85
2023/03/11 09:25:25;;;;;;;73.00;26.38;;;21.20;37.10;;;;;;4979020;28;20269;-86
2023/03/11 09:27:52;;;;;;;62.50;25.50;;;21.40;37.10;;;;;;4978678;28;20209;-85
2023/03/11 09:30:19;;;;;;;54.38;21.77;;;21.50;36.90;;;;;;4978941;28;20202;-86
2023/03/11 09:32:46;;;;;;;40.83;14.73;;;21.70;36.60;;;;;;4979106;28;20214;-85
2023/03/11 09:35:13;;;;;;;38.35;15.07;;;21.80;34.40;;;;;;4976718;28;20194;-85
2023/03/11 09:37:41;;;;;;;35.05;14.27;;;21.90;34.30;;;;;;4976385;28;20604;-85
2023/03/11 09:40:11;;;;;;;29.80;12.70;;;22.00;34.80;;;;;;4978551;28;20202;-85
2023/03/11 09:42:40;;;;;;;28.52;12.07;;;22.00;35.10;;;;;;4977019;28;20201;-85
2023/03/11 09:45:10;;;;;;;28.27;12.38;;;21.90;35.30;;;;;;4977234;28;20202;-85
2023/03/11 09:47:39;;;;;;;30.85;11.63;;;21.70;35.50;;;;;;4977239;28;20308;-85
2023/03/11 09:50:24;;;;;;;26.08;11.20;;;21.60;35.50;;;;;;4977596;28;20248;-85
2023/03/11 09:53:01;;;;;;;22.38;9.93;;;21.50;36.00;;;;;;4975271;28;20221;-85
2023/03/11 09:55:39;;;;;;;20.98;9.40;;;21.40;36.00;;;;;;4979210;28;20272;-85
2023/03/11 09:58:15;;;;;;;21.60;9.27;;;21.30;36.40;;;;;;4977622;28;20198;-85
2023/03/11 10:00:43;;;;;;;19.13;8.57;;;21.40;36.20;;;;;;4977745;28;20201;-85
2023/03/11 10:03:27;;;;;;;15.68;8.25;;;21.50;36.10;;;;;;4979644;28;20221;-85
2023/03/11 10:05:57;;;;;;;19.75;8.60;;;21.60;36.00;;;;;;4989879;28;20233;-85
2023/03/11 10:08:29;;;;;;;21.25;8.65;;;21.70;35.80;;;;;;4994511;28;20213;-84
2023/03/11 10:10:59;;;;;;;18.83;8.07;;;21.70;35.80;;;;;;4992873;28;20449;-85
2023/03/11 10:13:28;;;;;;;16.23;7.75;;;21.70;36.00;;;;;;4982931;28;20766;-85
2023/03/11 10:15:58;;;;;;;17.52;7.35;;;21.50;36.90;;;;;;4980086;28;20244;-84
2023/03/11 10:18:32;;;;;;;14.18;6.75;;;21.50;36.40;;;;;;4979348;28;20206;-84
2023/03/11 10:21:00;;;;;;;17.98;7.00;;;21.40;36.30;;;;;;4979772;28;20194;-84
2023/03/11 10:23:32;;;;;;;16.13;6.70;;;21.30;36.70;;;;;;4979856;28;20531;-83
2023/03/11 10:26:03;;;;;;;15.18;6.35;;;21.30;37.10;;;;;;4977387;28;20229;-84
2023/03/11 10:28:32;;;;;;;13.38;6.10;;;21.10;36.90;;;;;;4975157;28;20560;-84
2023/03/11 10:31:02;;;;;;;13.45;5.40;;;21.10;36.70;;;;;;4974867;28;20229;-84
2023/03/11 10:33:31;;;;;;;13.90;6.32;;;21.10;36.30;;;;;;4976001;28;20224;-85
2023/03/11 10:35:59;;;;;;;11.50;6.18;;;21.10;36.00;;;;;;4979211;28;20704;-84
2023/03/11 10:38:27;;;;;;;10.10;5.63;;;21.00;36.10;;;;;;4978443;28;20202;-84
2023/03/11 10:40:57;;;;;;;11.05;4.95;;;21.00;36.10;;;;;;4978673;28;20198;-84
2023/03/11 10:43:27;;;;;;;11.57;5.20;;;21.00;35.90;;;;;;4979162;28;20198;-84
2023/03/11 10:45:54;;;;;;;13.95;5.35;;;21.00;35.70;;;;;;4978046;28;20758;-84
2023/03/11 10:48:21;;;;;;;12.23;5.47;;;21.00;35.80;;;;;;4977549;28;20229;-84
2023/03/11 10:50:55;;;;;;;8.98;4.63;;;21.00;35.40;;;;;;4977291;28;20205;-83
2023/03/11 10:53:22;;;;;;;10.73;5.25;;;20.90;35.20;;;;;;4977326;28;20218;-84
2023/03/11 10:55:50;;;;;;;11.20;5.00;;;20.90;35.00;;;;;;4976562;28;20229;-83
2023/03/11 10:58:19;;;;;;;7.47;3.80;;;21.00;35.00;;;;;;4976397;28;20206;-83
2023/03/11 11:00:46;;;;;;;8.55;4.47;;;20.90;33.80;;;;;;4977087;28;20190;-85
2023/03/11 11:03:20;;;;;;;10.07;4.20;;;20.90;33.70;;;;;;4976768;28;20225;-83
2023/03/11 11:05:57;;;;;;;5.93;3.05;;;20.80;28.50;;;;;;4976247;28;20228;-84
2023/03/11 11:08:24;;;;;;;6.82;2.88;;;20.60;27.40;;;;;;4976893;28;20193;-83
2023/03/11 11:10:52;;;;;;;5.55;2.78;;;20.50;28.50;;;;;;4975769;28;20205;-84
2023/03/11 11:13:21;;;;;;;7.75;3.17;;;20.40;29.20;;;;;;4975376;28;20282;-84
2023/03/11 11:15:56;;;;;;;7.32;3.00;;;20.50;29.80;;;;;;4975308;28;20723;-84
2023/03/11 11:18:25;;;;;;;7.38;2.78;;;20.60;30.00;;;;;;4976601;28;20201;-83
2023/03/11 11:21:04;;;;;;;5.18;2.88;;;20.60;30.60;;;;;;4975101;28;20202;-85
2023/03/11 11:23:41;;;;;;;6.30;2.50;;;20.60;32.30;;;;;;4975740;28;20225;-83
2023/03/11 11:26:17;;;;;;;5.45;2.70;;;20.60;31.70;;;;;;4974691;28;20253;-83
2023/03/11 11:28:45;;;;;;;6.95;2.50;;;20.70;31.40;;;;;;4976745;28;20193;-84
2023/03/11 11:31:23;;;;;;;6.45;2.78;;;20.80;31.20;;;;;;4975037;28;20257;-83
2023/03/11 11:33:51;;;;;;;6.22;2.83;;;20.80;31.50;;;;;;4974492;28;20691;-84
2023/03/11 11:36:18;;;;;;;5.03;3.05;;;20.90;31.50;;;;;;4975092;28;20218;-84
2023/03/11 11:38:45;;;;;;;4.93;2.55;;;20.90;31.60;;;;;;4975997;28;20213;-84
2023/03/11 11:41:14;;;;;;;5.53;2.80;;;20.90;31.70;;;;;;4979958;28;20318;-83
2023/03/11 11:43:46;;;;;;;5.40;2.70;;;20.80;31.80;;;;;;4979655;28;20198;-83
2023/03/11 11:46:19;;;;;;;4.38;2.38;;;20.80;31.70;;;;;;4980599;28;20222;-83
2023/03/11 11:48:49;;;;;;;4.05;2.58;;;20.80;32.10;;;;;;4980473;28;20195;-84
2023/03/11 11:51:18;;;;;;;7.95;2.72;;;20.70;31.90;;;;;;4980949;28;20190;-84
2023/03/11 11:53:47;;;;;;;4.68;2.33;;;20.70;32.10;;;;;;4980464;28;20230;-85
2023/03/11 11:56:14;;;;;;;4.75;2.63;;;20.70;31.90;;;;;;4981134;28;20229;-84
2023/03/11 11:58:42;;;;;;;5.43;2.33;;;20.60;31.80;;;;;;4980545;28;20207;-85
2023/03/11 12:01:16;;;;;;;6.65;2.53;;;20.50;31.90;;;;;;4980334;28;20234;-84
2023/03/11 12:04:11;;;;;;;4.32;2.20;;;20.60;31.80;;;;;;4979405;28;20198;-84
2023/03/11 12:06:40;;;;;;;3.60;2.30;;;20.50;31.80;;;;;;4982118;28;20226;-84
2023/03/11 12:09:14;;;;;;;5.38;2.55;;;20.40;31.70;;;;;;4979593;28;20649;-84
2023/03/11 12:11:44;;;;;;;4.13;2.20;;;20.40;32.30;;;;;;4979226;28;20197;-84
2023/03/11 12:14:15;;;;;;;5.05;2.40;;;20.30;32.20;;;;;;4979894;28;20590;-84
2023/03/11 12:16:45;;;;;;;3.83;2.30;;;20.30;32.40;;;;;;4978877;28;20222;-84
2023/03/11 12:19:33;;;;;;;3.60;2.10;;;20.20;32.40;;;;;;4979032;28;20194;-84
2023/03/11 12:22:15;;;;;;;6.00;2.65;;;20.20;32.70;;;;;;4979279;28;20201;-84
2023/03/11 12:24:52;;;;;;;3.65;2.20;;;20.20;33.10;;;;;;4978536;28;20249;-84
2023/03/11 12:27:21;;;;;;;3.95;2.03;;;20.20;33.20;;;;;;4979123;28;20316;-84
2023/03/11 12:29:49;;;;;;;5.30;2.30;;;20.10;33.50;;;;;;4978276;28;20293;-84
2023/03/11 12:32:30;;;;;;;5.53;2.30;;;20.10;33.40;;;;;;4978369;28;20264;-84
2023/03/11 12:35:03;;;;;;;3.63;2.25;;;20.10;33.40;;;;;;4977873;28;20297;-84
2023/03/11 12:37:32;;;;;;;5.03;2.42;;;20.10;33.40;;;;;;4977809;28;20714;-84
2023/03/11 12:39:58;;;;;;;4.22;2.35;;;20.10;33.20;;;;;;4978016;28;20305;-84
2023/03/11 12:42:26;;;;;;;3.33;1.95;;;20.10;33.10;;;;;;4961122;28;20194;-84
2023/03/11 12:44:53;;;;;;;4.15;2.00;;;20.10;33.10;;;;;;4976355;28;20603;-84
2023/03/11 12:47:37;;;;;;;4.35;2.15;;;20.10;33.20;;;;;;4977140;28;20379;-84
2023/03/11 12:50:39;;;;;;;2.35;1.88;;;20.00;33.00;;;;;;4964457;28;20246;-84
2023/03/11 12:53:09;;;;;;;3.92;2.30;;;20.00;33.00;;;;;;4960873;28;20233;-84
2023/03/11 12:55:36;;;;;;;2.95;1.88;;;20.00;33.10;;;;;;4980172;28;20620;-84
2023/03/11 12:58:43;;;;;;;4.13;1.92;;;20.00;33.20;;;;;;4980546;28;20240;-84
2023/03/11 13:01:38;;;;;;;3.88;2.20;;;19.90;33.20;;;;;;4979761;28;20567;-83